createdAt,value
2019-04-07T00:01:14.583Z,8.10
2019-04-07T00:06:13.477Z,8.43
2019-04-07T00:11:10.636Z,7.73
2019-04-07T00:16:07.682Z,7.73
2019-04-07T00:21:07.636Z,8.77
2019-04-07T00:26:05.096Z,8.77
2019-04-07T00:31:02.511Z,7.00
2019-04-07T00:36:00.199Z,8.80
2019-04-07T00:40:57.895Z,7.93
2019-04-07T00:45:55.917Z,9.30
2019-04-07T00:50:53.802Z,8.47
2019-04-07T00:55:50.834Z,9.27
2019-04-07T01:00:48.086Z,7.53
2019-04-07T01:05:45.757Z,7.80
2019-04-07T01:10:43.192Z,8.33
2019-04-07T01:15:40.653Z,9.03
2019-04-07T01:20:37.843Z,7.33
2019-04-07T01:25:35.602Z,8.17
2019-04-07T01:30:32.905Z,8.47
2019-04-07T01:35:30.431Z,6.60
2019-04-07T01:40:27.609Z,7.97
2019-04-07T01:45:33.346Z,8.33
2019-04-07T01:50:31.176Z,8.70
2019-04-07T01:55:34.502Z,8.97
2019-04-07T02:00:45.502Z,11.83
2019-04-07T02:05:58.385Z,10.23
2019-04-07T02:10:50.647Z,9.17
2019-04-07T02:15:49.634Z,12.83
2019-04-07T02:21:04.446Z,11.60
2019-04-07T02:26:22.384Z,12.87
2019-04-07T02:31:24.958Z,15.17
2019-04-07T02:36:31.741Z,16.00
2019-04-07T02:41:48.605Z,14.53
2019-04-07T02:46:54.686Z,14.37
2019-04-07T02:51:56.441Z,13.67
2019-04-07T02:56:56.049Z,13.57
2019-04-07T03:01:56.181Z,13.07
2019-04-07T03:06:59.012Z,16.07
2019-04-07T03:11:56.443Z,21.67
2019-04-07T03:16:58.176Z,18.37
2019-04-07T03:22:06.570Z,14.20
2019-04-07T03:27:10.111Z,13.63
2019-04-07T03:32:27.548Z,15.37
2019-04-07T03:37:38.863Z,17.70
2019-04-07T03:42:37.038Z,18.17
2019-04-07T03:47:39.579Z,17.13
2019-04-07T03:52:46.766Z,17.33
2019-04-07T03:57:46.338Z,17.43
2019-04-07T04:02:57.574Z,16.43
2019-04-07T04:07:59.592Z,15.17
2019-04-07T04:13:01.083Z,19.00
2019-04-07T04:17:58.354Z,17.87
2019-04-07T04:22:55.403Z,20.63
2019-04-07T04:27:52.912Z,18.03
2019-04-07T04:32:50.117Z,18.77
2019-04-07T04:37:51.474Z,15.67
2019-04-07T04:42:46.166Z,14.40
2019-04-07T04:47:43.249Z,18.37
2019-04-07T04:52:40.768Z,17.03
2019-04-07T04:57:38.004Z,15.60
2019-04-07T05:02:35.970Z,16.37
2019-04-07T05:07:46.848Z,14.20
2019-04-07T05:12:32.263Z,73.70
2019-04-07T05:17:29.410Z,47.53
2019-04-07T05:22:26.757Z,53.30
2019-04-07T05:27:23.938Z,24.47
2019-04-07T05:32:21.236Z,17.43
2019-04-07T05:37:18.809Z,11.60
2019-04-07T05:42:16.634Z,10.90
2019-04-07T05:47:14.679Z,11.87
2019-04-07T05:52:12.796Z,11.03
2019-04-07T05:57:09.785Z,10.83
2019-04-07T06:02:08.964Z,13.47
2019-04-07T06:07:06.931Z,11.50
2019-04-07T06:12:08.488Z,13.30
2019-04-07T06:17:03.199Z,9.97
2019-04-07T06:22:00.361Z,10.13
2019-04-07T06:26:57.568Z,9.73
2019-04-07T06:31:54.930Z,10.80
2019-04-07T06:36:55.254Z,11.43
2019-04-07T06:41:52.496Z,11.00
2019-04-07T06:46:51.407Z,10.47
2019-04-07T06:52:02.955Z,10.63
2019-04-07T06:56:58.981Z,10.27
2019-04-07T07:02:22.412Z,10.73
2019-04-07T07:07:19.164Z,10.13
2019-04-07T07:12:38.448Z,9.23
2019-04-07T07:17:34.420Z,11.17
2019-04-07T07:22:41.484Z,9.13
2019-04-07T07:27:41.027Z,9.87
2019-04-07T07:32:38.848Z,9.67
2019-04-07T07:37:36.044Z,9.23
2019-04-07T07:42:37.600Z,7.90
2019-04-07T07:47:38.403Z,6.60
2019-04-07T07:52:37.690Z,7.83
2019-04-07T07:57:39.461Z,9.37
2019-04-07T08:02:36.560Z,8.87
2019-04-07T08:07:34.776Z,8.43
2019-04-07T08:12:34.428Z,9.47
2019-04-07T08:17:33.114Z,8.57
2019-04-07T08:22:33.789Z,14.40
2019-04-07T08:27:31.040Z,9.40
2019-04-07T08:32:30.822Z,9.43
2019-04-07T08:37:28.621Z,8.27
2019-04-07T08:42:25.866Z,8.43
2019-04-07T08:47:23.449Z,10.10
2019-04-07T08:52:21.101Z,9.07
2019-04-07T08:57:18.174Z,10.17
2019-04-07T09:02:15.327Z,8.53
2019-04-07T09:07:12.392Z,7.97
2019-04-07T09:12:10.319Z,8.03
2019-04-07T09:17:08.218Z,7.50
2019-04-07T09:22:12.898Z,8.70
2019-04-07T09:27:23.332Z,6.87
2019-04-07T09:32:32.054Z,7.43
2019-04-07T09:37:36.746Z,8.20
2019-04-07T09:42:35.603Z,6.73
2019-04-07T09:47:34.741Z,7.23
2019-04-07T09:52:52.308Z,5.97
2019-04-07T09:58:09.262Z,9.60
2019-04-07T10:03:23.368Z,8.30
2019-04-07T10:08:22.265Z,7.40
2019-04-07T10:13:21.748Z,6.90
2019-04-07T10:18:20.635Z,7.90
2019-04-07T10:23:19.666Z,6.97
2019-04-07T10:28:26.480Z,6.67
2019-04-07T10:33:23.761Z,7.13
2019-04-07T10:38:28.031Z,6.00
2019-04-07T10:43:35.038Z,7.57
2019-04-07T10:48:40.869Z,7.60
2019-04-07T10:53:40.499Z,6.93
2019-04-07T10:58:41.410Z,7.50
2019-04-07T11:03:40.514Z,6.97
2019-04-07T11:08:47.658Z,7.57
2019-04-07T11:13:53.414Z,6.40
2019-04-07T11:18:54.896Z,6.80
2019-04-07T11:24:05.490Z,5.17
2019-04-07T11:29:11.031Z,6.93
2019-04-07T11:34:15.142Z,8.07
2019-04-07T11:39:24.481Z,7.87
2019-04-07T11:44:31.052Z,7.57
2019-04-07T11:49:46.715Z,9.30
2019-04-07T11:54:57.775Z,8.33
2019-04-07T11:59:57.530Z,6.50
2019-04-07T12:05:11.682Z,7.60
2019-04-07T12:10:27.485Z,6.07
2019-04-07T12:15:35.370Z,8.27
2019-04-07T12:20:47.215Z,8.03
2019-04-07T12:25:52.741Z,8.87
2019-04-07T12:31:05.388Z,8.73
2019-04-07T12:36:06.201Z,8.73
2019-04-07T12:41:19.733Z,8.73
2019-04-07T12:46:16.538Z,7.43
2019-04-07T12:51:32.813Z,8.20
2019-04-07T12:56:47.641Z,8.10
2019-04-07T13:01:47.539Z,8.13
2019-04-07T13:06:48.032Z,6.87
2019-04-07T13:11:49.700Z,8.87
2019-04-07T13:17:05.355Z,7.63
2019-04-07T13:22:21.535Z,7.80
2019-04-07T13:27:38.946Z,7.77
2019-04-07T13:32:42.835Z,7.13
2019-04-07T13:37:41.278Z,6.77
2019-04-07T13:42:37.888Z,7.87
2019-04-07T13:47:43.605Z,7.10
2019-04-07T13:52:46.429Z,6.47
2019-04-07T13:58:00.812Z,7.20
2019-04-07T14:03:01.393Z,6.27
2019-04-07T14:08:07.106Z,7.17
2019-04-07T14:13:13.653Z,7.93
2019-04-07T14:18:13.417Z,6.63
2019-04-07T14:23:30.158Z,7.53
2019-04-07T14:28:35.702Z,8.83
2019-04-07T14:33:46.948Z,7.13
2019-04-07T14:38:47.650Z,7.37
2019-04-07T14:44:00.864Z,7.23
2019-04-07T14:49:00.020Z,7.27
2019-04-07T14:54:02.843Z,5.70
2019-04-07T14:59:08.080Z,7.10
2019-04-07T15:04:05.264Z,8.10
2019-04-07T15:09:08.262Z,6.27
2019-04-07T15:14:06.566Z,7.77
2019-04-07T15:19:04.580Z,8.00
2019-04-07T15:24:04.065Z,7.10
2019-04-07T15:29:04.643Z,7.23
2019-04-07T15:34:04.106Z,8.40
2019-04-07T15:39:01.473Z,6.80
2019-04-07T15:44:05.080Z,6.77
2019-04-07T15:49:00.135Z,8.70
2019-04-07T15:53:57.210Z,6.47
2019-04-07T15:58:58.211Z,5.83
2019-04-07T16:03:54.730Z,9.27
2019-04-07T16:08:51.991Z,8.43
2019-04-07T16:13:49.531Z,8.10
2019-04-07T16:18:46.681Z,9.27
2019-04-07T16:23:48.734Z,8.13
2019-04-07T16:28:46.198Z,8.37
2019-04-07T16:33:42.988Z,9.63
2019-04-07T16:38:40.689Z,7.63
2019-04-07T16:43:39.828Z,8.73
2019-04-07T16:48:40.229Z,10.70
2019-04-07T16:53:39.089Z,11.10
2019-04-07T16:58:38.523Z,12.20
2019-04-07T17:03:35.462Z,10.63
2019-04-07T17:08:32.679Z,10.07
2019-04-07T17:13:38.135Z,9.40
2019-04-07T17:18:38.913Z,8.80
2019-04-07T17:23:36.604Z,10.60
2019-04-07T17:28:36.489Z,42.27
2019-04-07T17:33:36.828Z,13.37
2019-04-07T17:38:41.055Z,13.23
2019-04-07T17:49:01.217Z,8.83
2019-04-07T17:54:20.885Z,8.07
2019-04-07T17:59:34.788Z,8.63
2019-04-07T18:04:42.918Z,12.53
2019-04-07T18:09:42.168Z,27.47
2019-04-07T18:14:57.053Z,56.33
2019-04-07T18:19:53.688Z,35.80
2019-04-07T18:24:53.489Z,49.33
2019-04-07T18:29:50.493Z,65.07
2019-04-07T18:35:06.464Z,64.87
2019-04-07T18:40:08.865Z,47.10
2019-04-07T18:45:12.282Z,46.07
2019-04-07T18:50:23.840Z,41.53
2019-04-07T18:55:37.203Z,31.17
2019-04-07T19:00:45.476Z,24.77
2019-04-07T19:05:58.575Z,27.50
2019-04-07T19:11:14.936Z,28.63
2019-04-07T19:16:21.388Z,24.63
2019-04-07T19:21:25.113Z,19.93
2019-04-07T19:26:34.729Z,22.77
2019-04-07T19:31:48.085Z,21.73
2019-04-07T19:36:56.607Z,20.20
2019-04-07T19:42:04.567Z,16.13
2019-04-07T19:47:17.017Z,16.70
2019-04-07T19:52:20.920Z,21.03
2019-04-07T19:57:23.799Z,16.70
2019-04-07T20:02:22.769Z,17.00
2019-04-07T20:07:35.289Z,18.77
2019-04-07T20:12:43.895Z,20.53
2019-04-07T20:17:52.673Z,22.03
2019-04-07T20:23:06.400Z,19.40
2019-04-07T20:28:08.749Z,21.60
2019-04-07T20:33:24.925Z,19.90
2019-04-07T20:38:40.329Z,22.13
2019-04-07T20:43:37.283Z,20.97
2019-04-07T20:48:53.797Z,21.93
2019-04-07T20:54:03.721Z,25.50
2019-04-07T20:59:08.343Z,19.27
2019-04-07T21:04:12.747Z,24.23
2019-04-07T21:09:11.734Z,22.67
2019-04-07T21:14:11.179Z,22.60
2019-04-07T21:19:17.282Z,21.30
2019-04-07T21:24:33.551Z,17.97
2019-04-07T21:29:35.074Z,20.57
2019-04-07T21:34:43.351Z,19.97
2019-04-07T21:39:45.624Z,17.20
2019-04-07T21:44:51.600Z,17.23
2019-04-07T21:49:51.541Z,17.53
2019-04-07T21:55:09.868Z,14.47
2019-04-07T22:00:29.128Z,17.73
2019-04-07T22:05:42.191Z,17.97
2019-04-07T22:10:39.151Z,20.37
2019-04-07T22:15:46.320Z,16.30
2019-04-07T22:20:35.060Z,16.57
2019-04-07T22:25:38.349Z,17.50
2019-04-07T22:30:39.261Z,16.93
2019-04-07T22:35:39.443Z,16.40
2019-04-07T22:40:37.948Z,16.47
2019-04-07T22:45:35.017Z,17.43
2019-04-07T22:50:35.467Z,19.33
2019-04-07T22:55:31.257Z,28.90
2019-04-07T23:00:28.778Z,27.63
2019-04-07T23:05:26.115Z,18.23
2019-04-07T23:10:23.294Z,20.13
2019-04-07T23:15:20.774Z,22.17
2019-04-07T23:20:17.862Z,28.93
2019-04-07T23:25:15.507Z,29.03
2019-04-07T23:30:13.360Z,26.97
2019-04-07T23:35:10.935Z,27.10
2019-04-07T23:40:08.917Z,25.77
2019-04-07T23:45:06.424Z,21.87
2019-04-07T23:50:07.072Z,17.90
2019-04-07T23:55:04.346Z,16.20
